sensor_id;sensor_type;location;lat;lon;timestamp;P1;durP1;ratioP1;P2;durP2;ratioP2
68744;SDS011;66104;45.456;11.064;2023-05-14T00:00:07;1.70;;;1.10;;
68744;SDS011;66104;45.456;11.064;2023-05-14T00:02:51;1.90;;;1.10;;
68744;SDS011;66104;45.456;11.064;2023-05-14T00:05:30;2.20;;;1.10;;
68744;SDS011;66104;45.456;11.064;2023-05-14T00:08:09;2.20;;;1.00;;
68744;SDS011;66104;45.456;11.064;2023-05-14T00:10:49;2.70;;;1.00;;
68744;SDS011;66104;45.456;11.064;2023-05-14T00:13:29;2.40;;;1.00;;
68744;SDS011;66104;45.456;11.064;2023-05-14T00:16:09;4.60;;;1.20;;
68744;SDS011;66104;45.456;11.064;2023-05-14T00:18:48;3.00;;;1.10;;
68744;SDS011;66104;45.456;11.064;2023-05-14T00:21:26;2.90;;;1.10;;
68744;SDS011;66104;45.456;11.064;2023-05-14T00:24:07;2.40;;;0.90;;
68744;SDS011;66104;45.456;11.064;2023-05-14T00:26:45;4.20;;;1.20;;
68744;SDS011;66104;45.456;11.064;2023-05-14T00:29:23;2.00;;;0.90;;
68744;SDS011;66104;45.456;11.064;2023-05-14T00:32:01;1.70;;;1.10;;
68744;SDS011;66104;45.456;11.064;2023-05-14T00:34:40;1.60;;;1.00;;
68744;SDS011;66104;45.456;11.064;2023-05-14T00:37:18;2.90;;;1.10;;
68744;SDS011;66104;45.456;11.064;2023-05-14T00:43:07;2.40;;;1.40;;
68744;SDS011;66104;45.456;11.064;2023-05-14T00:45:45;2.60;;;1.40;;
68744;SDS011;66104;45.456;11.064;2023-05-14T00:48:24;3.80;;;1.40;;
68744;SDS011;66104;45.456;11.064;2023-05-14T00:51:04;3.50;;;1.40;;
68744;SDS011;66104;45.456;11.064;2023-05-14T00:53:45;2.40;;;1.40;;
68744;SDS011;66104;45.456;11.064;2023-05-14T00:56:22;3.80;;;1.80;;
68744;SDS011;66104;45.456;11.064;2023-05-14T00:59:00;2.40;;;1.20;;
68744;SDS011;66104;45.456;11.064;2023-05-14T01:01:38;2.40;;;1.20;;
68744;SDS011;66104;45.456;11.064;2023-05-14T01:04:17;2.70;;;1.10;;
68744;SDS011;66104;45.456;11.064;2023-05-14T01:07:04;1.80;;;1.20;;
68744;SDS011;66104;45.456;11.064;2023-05-14T01:09:58;1.80;;;1.20;;
68744;SDS011;66104;45.456;11.064;2023-05-14T01:12:51;2.50;;;1.10;;
68744;SDS011;66104;45.456;11.064;2023-05-14T01:15:39;2.20;;;1.30;;
68744;SDS011;66104;45.456;11.064;2023-05-14T01:18:19;4.10;;;1.30;;
68744;SDS011;66104;45.456;11.064;2023-05-14T01:20:59;3.60;;;1.50;;
68744;SDS011;66104;45.456;11.064;2023-05-14T01:23:37;3.20;;;1.30;;
68744;SDS011;66104;45.456;11.064;2023-05-14T01:26:16;3.10;;;1.20;;
68744;SDS011;66104;45.456;11.064;2023-05-14T01:28:58;1.60;;;1.10;;
68744;SDS011;66104;45.456;11.064;2023-05-14T01:31:46;2.50;;;1.30;;
68744;SDS011;66104;45.456;11.064;2023-05-14T01:34:25;4.00;;;1.10;;
68744;SDS011;66104;45.456;11.064;2023-05-14T01:37:05;2.90;;;1.40;;
68744;SDS011;66104;45.456;11.064;2023-05-14T01:39:46;2.60;;;1.10;;
68744;SDS011;66104;45.456;11.064;2023-05-14T01:42:26;2.70;;;1.20;;
68744;SDS011;66104;45.456;11.064;2023-05-14T01:45:05;2.20;;;1.10;;
68744;SDS011;66104;45.456;11.064;2023-05-14T01:47:45;2.70;;;1.20;;
68744;SDS011;66104;45.456;11.064;2023-05-14T01:50:24;3.30;;;1.20;;
68744;SDS011;66104;45.456;11.064;2023-05-14T01:53:03;2.00;;;1.20;;
68744;SDS011;66104;45.456;11.064;2023-05-14T01:55:42;3.50;;;1.20;;
68744;SDS011;66104;45.456;11.064;2023-05-14T01:58:21;2.10;;;1.10;;
68744;SDS011;66104;45.456;11.064;2023-05-14T02:01:00;2.30;;;1.20;;
68744;SDS011;66104;45.456;11.064;2023-05-14T02:03:38;2.90;;;1.20;;
68744;SDS011;66104;45.456;11.064;2023-05-14T02:06:15;2.70;;;1.10;;
68744;SDS011;66104;45.456;11.064;2023-05-14T02:08:53;3.80;;;1.00;;
68744;SDS011;66104;45.456;11.064;2023-05-14T02:11:32;2.20;;;1.10;;
68744;SDS011;66104;45.456;11.064;2023-05-14T02:14:10;3.10;;;1.10;;
68744;SDS011;66104;45.456;11.064;2023-05-14T02:16:48;2.30;;;1.00;;
68744;SDS011;66104;45.456;11.064;2023-05-14T02:19:26;4.70;;;1.20;;
68744;SDS011;66104;45.456;11.064;2023-05-14T02:22:05;4.50;;;1.20;;
68744;SDS011;66104;45.456;11.064;2023-05-14T02:24:46;4.00;;;1.20;;
68744;SDS011;66104;45.456;11.064;2023-05-14T02:27:25;3.50;;;1.00;;
68744;SDS011;66104;45.456;11.064;2023-05-14T02:30:04;2.50;;;1.00;;
68744;SDS011;66104;45.456;11.064;2023-05-14T02:32:47;2.10;;;1.10;;
68744;SDS011;66104;45.456;11.064;2023-05-14T02:35:26;3.90;;;1.20;;
68744;SDS011;66104;45.456;11.064;2023-05-14T02:38:04;2.80;;;1.20;;
68744;SDS011;66104;45.456;11.064;2023-05-14T02:40:43;2.40;;;1.10;;
68744;SDS011;66104;45.456;11.064;2023-05-14T02:43:21;2.00;;;1.10;;
68744;SDS011;66104;45.456;11.064;2023-05-14T02:45:59;2.90;;;1.20;;
68744;SDS011;66104;45.456;11.064;2023-05-14T02:48:38;2.90;;;1.20;;
68744;SDS011;66104;45.456;11.064;2023-05-14T02:51:18;3.60;;;1.10;;
68744;SDS011;66104;45.456;11.064;2023-05-14T02:53:57;3.80;;;1.10;;
68744;SDS011;66104;45.456;11.064;2023-05-14T02:56:35;2.70;;;1.20;;
68744;SDS011;66104;45.456;11.064;2023-05-14T02:59:13;2.90;;;1.00;;
68744;SDS011;66104;45.456;11.064;2023-05-14T03:01:51;1.70;;;1.20;;
68744;SDS011;66104;45.456;11.064;2023-05-14T03:04:30;2.10;;;1.30;;
68744;SDS011;66104;45.456;11.064;2023-05-14T03:07:11;1.90;;;1.10;;
68744;SDS011;66104;45.456;11.064;2023-05-14T03:09:49;3.70;;;1.20;;
68744;SDS011;66104;45.456;11.064;2023-05-14T03:12:27;2.90;;;1.30;;
68744;SDS011;66104;45.456;11.064;2023-05-14T03:15:04;2.70;;;1.00;;
68744;SDS011;66104;45.456;11.064;2023-05-14T03:17:46;3.30;;;1.20;;
68744;SDS011;66104;45.456;11.064;2023-05-14T03:20:25;1.60;;;1.00;;
68744;SDS011;66104;45.456;11.064;2023-05-14T03:23:04;1.90;;;1.10;;
68744;SDS011;66104;45.456;11.064;2023-05-14T03:25:42;2.20;;;1.00;;
68744;SDS011;66104;45.456;11.064;2023-05-14T03:28:19;3.50;;;1.20;;
68744;SDS011;66104;45.456;11.064;2023-05-14T03:30:58;2.40;;;1.10;;
68744;SDS011;66104;45.456;11.064;2023-05-14T03:33:37;3.60;;;1.10;;
68744;SDS011;66104;45.456;11.064;2023-05-14T03:36:14;3.00;;;0.90;;
68744;SDS011;66104;45.456;11.064;2023-05-14T03:38:52;2.40;;;1.20;;
68744;SDS011;66104;45.456;11.064;2023-05-14T03:41:31;3.20;;;1.10;;
68744;SDS011;66104;45.456;11.064;2023-05-14T03:44:10;2.20;;;0.90;;
68744;SDS011;66104;45.456;11.064;2023-05-14T03:46:50;4.80;;;1.10;;
68744;SDS011;66104;45.456;11.064;2023-05-14T03:49:29;1.80;;;1.00;;
68744;SDS011;66104;45.456;11.064;2023-05-14T03:52:10;3.50;;;1.40;;
68744;SDS011;66104;45.456;11.064;2023-05-14T03:54:50;2.00;;;1.10;;
68744;SDS011;66104;45.456;11.064;2023-05-14T03:57:28;3.40;;;1.20;;
68744;SDS011;66104;45.456;11.064;2023-05-14T04:00:13;3.20;;;1.40;;
68744;SDS011;66104;45.456;11.064;2023-05-14T04:02:56;2.60;;;1.10;;
68744;SDS011;66104;45.456;11.064;2023-05-14T04:05:35;3.50;;;1.10;;
68744;SDS011;66104;45.456;11.064;2023-05-14T04:08:14;3.40;;;1.20;;
68744;SDS011;66104;45.456;11.064;2023-05-14T04:10:54;3.10;;;1.20;;
68744;SDS011;66104;45.456;11.064;2023-05-14T04:13:33;3.20;;;1.00;;
68744;SDS011;66104;45.456;11.064;2023-05-14T04:16:14;2.20;;;1.10;;
68744;SDS011;66104;45.456;11.064;2023-05-14T04:18:52;2.60;;;1.20;;
68744;SDS011;66104;45.456;11.064;2023-05-14T04:21:31;3.10;;;1.10;;
68744;SDS011;66104;45.456;11.064;2023-05-14T04:24:16;2.00;;;1.30;;
68744;SDS011;66104;45.456;11.064;2023-05-14T04:26:55;3.40;;;1.30;;
68744;SDS011;66104;45.456;11.064;2023-05-14T04:29:38;6.80;;;1.20;;
68744;SDS011;66104;45.456;11.064;2023-05-14T04:32:19;2.30;;;0.90;;
68744;SDS011;66104;45.456;11.064;2023-05-14T04:34:57;2.40;;;1.00;;
68744;SDS011;66104;45.456;11.064;2023-05-14T04:37:35;3.20;;;0.90;;
68744;SDS011;66104;45.456;11.064;2023-05-14T04:40:17;2.30;;;1.10;;
68744;SDS011;66104;45.456;11.064;2023-05-14T04:42:56;1.80;;;1.10;;
68744;SDS011;66104;45.456;11.064;2023-05-14T04:45:36;1.80;;;1.00;;
68744;SDS011;66104;45.456;11.064;2023-05-14T04:48:13;2.70;;;1.10;;
68744;SDS011;66104;45.456;11.064;2023-05-14T04:50:51;2.20;;;1.10;;
68744;SDS011;66104;45.456;11.064;2023-05-14T04:53:31;3.10;;;1.20;;
68744;SDS011;66104;45.456;11.064;2023-05-14T04:56:09;1.90;;;1.20;;
68744;SDS011;66104;45.456;11.064;2023-05-14T04:58:47;2.40;;;1.20;;
68744;SDS011;66104;45.456;11.064;2023-05-14T05:01:25;3.70;;;1.50;;
68744;SDS011;66104;45.456;11.064;2023-05-14T05:04:04;3.30;;;1.60;;
68744;SDS011;66104;45.456;11.064;2023-05-14T05:06:43;4.50;;;1.50;;
68744;SDS011;66104;45.456;11.064;2023-05-14T05:09:21;2.00;;;1.40;;
68744;SDS011;66104;45.456;11.064;2023-05-14T05:12:00;2.20;;;1.40;;
68744;SDS011;66104;45.456;11.064;2023-05-14T05:14:38;2.60;;;1.80;;
68744;SDS011;66104;45.456;11.064;2023-05-14T05:17:17;3.20;;;1.60;;
68744;SDS011;66104;45.456;11.064;2023-05-14T05:19:55;3.20;;;1.60;;
68744;SDS011;66104;45.456;11.064;2023-05-14T05:22:34;2.00;;;1.40;;
68744;SDS011;66104;45.456;11.064;2023-05-14T05:25:14;3.80;;;2.00;;
68744;SDS011;66104;45.456;11.064;2023-05-14T05:27:52;3.10;;;1.90;;
68744;SDS011;66104;45.456;11.064;2023-05-14T05:30:30;4.10;;;1.70;;
68744;SDS011;66104;45.456;11.064;2023-05-14T05:33:08;2.40;;;1.40;;
68744;SDS011;66104;45.456;11.064;2023-05-14T05:35:47;4.30;;;1.40;;
68744;SDS011;66104;45.456;11.064;2023-05-14T05:38:25;2.80;;;1.60;;
68744;SDS011;66104;45.456;11.064;2023-05-14T05:41:02;2.60;;;1.60;;
68744;SDS011;66104;45.456;11.064;2023-05-14T05:43:40;2.30;;;1.40;;
68744;SDS011;66104;45.456;11.064;2023-05-14T05:46:18;4.10;;;1.70;;
68744;SDS011;66104;45.456;11.064;2023-05-14T05:48:56;3.00;;;1.80;;
68744;SDS011;66104;45.456;11.064;2023-05-14T05:51:34;3.10;;;1.60;;
68744;SDS011;66104;45.456;11.064;2023-05-14T05:54:11;2.80;;;1.30;;
68744;SDS011;66104;45.456;11.064;2023-05-14T05:56:49;4.80;;;1.50;;
68744;SDS011;66104;45.456;11.064;2023-05-14T05:59:28;2.70;;;1.50;;
68744;SDS011;66104;45.456;11.064;2023-05-14T06:02:05;4.50;;;1.70;;
68744;SDS011;66104;45.456;11.064;2023-05-14T06:04:44;4.50;;;1.50;;
68744;SDS011;66104;45.456;11.064;2023-05-14T06:07:21;7.60;;;1.70;;
68744;SDS011;66104;45.456;11.064;2023-05-14T06:09:59;4.00;;;1.50;;
68744;SDS011;66104;45.456;11.064;2023-05-14T06:12:38;3.70;;;1.50;;
68744;SDS011;66104;45.456;11.064;2023-05-14T06:15:16;3.00;;;1.60;;
68744;SDS011;66104;45.456;11.064;2023-05-14T06:17:54;4.10;;;1.50;;
68744;SDS011;66104;45.456;11.064;2023-05-14T06:20:32;3.20;;;1.40;;
68744;SDS011;66104;45.456;11.064;2023-05-14T06:23:10;4.20;;;1.50;;
68744;SDS011;66104;45.456;11.064;2023-05-14T06:25:51;3.20;;;1.40;;
68744;SDS011;66104;45.456;11.064;2023-05-14T06:28:28;2.30;;;1.30;;
68744;SDS011;66104;45.456;11.064;2023-05-14T06:31:06;3.50;;;1.30;;
68744;SDS011;66104;45.456;11.064;2023-05-14T06:33:45;3.80;;;1.80;;
68744;SDS011;66104;45.456;11.064;2023-05-14T06:36:22;3.60;;;1.40;;
68744;SDS011;66104;45.456;11.064;2023-05-14T06:39:01;3.40;;;1.80;;
68744;SDS011;66104;45.456;11.064;2023-05-14T06:41:39;2.60;;;1.60;;
68744;SDS011;66104;45.456;11.064;2023-05-14T06:44:18;7.00;;;1.60;;
68744;SDS011;66104;45.456;11.064;2023-05-14T06:46:55;2.00;;;1.30;;
68744;SDS011;66104;45.456;11.064;2023-05-14T06:49:33;6.00;;;1.90;;
68744;SDS011;66104;45.456;11.064;2023-05-14T06:52:11;3.40;;;1.70;;
68744;SDS011;66104;45.456;11.064;2023-05-14T06:54:48;4.20;;;1.80;;
68744;SDS011;66104;45.456;11.064;2023-05-14T06:57:25;5.30;;;1.70;;
68744;SDS011;66104;45.456;11.064;2023-05-14T07:00:04;3.60;;;1.90;;
68744;SDS011;66104;45.456;11.064;2023-05-14T07:02:45;3.00;;;1.80;;
68744;SDS011;66104;45.456;11.064;2023-05-14T07:05:24;2.90;;;1.70;;
68744;SDS011;66104;45.456;11.064;2023-05-14T07:08:01;3.60;;;1.80;;
68744;SDS011;66104;45.456;11.064;2023-05-14T07:10:39;2.80;;;1.70;;
68744;SDS011;66104;45.456;11.064;2023-05-14T07:13:18;3.10;;;2.00;;
68744;SDS011;66104;45.456;11.064;2023-05-14T07:15:58;3.50;;;2.00;;
68744;SDS011;66104;45.456;11.064;2023-05-14T07:18:36;5.50;;;1.70;;
68744;SDS011;66104;45.456;11.064;2023-05-14T07:21:13;5.60;;;2.20;;
68744;SDS011;66104;45.456;11.064;2023-05-14T07:23:50;4.10;;;2.00;;
68744;SDS011;66104;45.456;11.064;2023-05-14T07:26:28;4.00;;;1.80;;
68744;SDS011;66104;45.456;11.064;2023-05-14T07:29:07;2.70;;;1.80;;
68744;SDS011;66104;45.456;11.064;2023-05-14T07:31:45;3.60;;;2.00;;
68744;SDS011;66104;45.456;11.064;2023-05-14T07:34:23;4.10;;;2.00;;
68744;SDS011;66104;45.456;11.064;2023-05-14T07:37:01;4.50;;;2.30;;
68744;SDS011;66104;45.456;11.064;2023-05-14T07:39:40;5.00;;;2.80;;
68744;SDS011;66104;45.456;11.064;2023-05-14T07:42:18;8.30;;;2.60;;
68744;SDS011;66104;45.456;11.064;2023-05-14T07:45:09;3.90;;;2.20;;
68744;SDS011;66104;45.456;11.064;2023-05-14T07:47:48;3.90;;;2.40;;
68744;SDS011;66104;45.456;11.064;2023-05-14T07:50:27;3.70;;;2.30;;
68744;SDS011;66104;45.456;11.064;2023-05-14T07:53:04;4.70;;;2.40;;
68744;SDS011;66104;45.456;11.064;2023-05-14T07:55:43;4.50;;;2.80;;
68744;SDS011;66104;45.456;11.064;2023-05-14T07:58:21;6.20;;;2.70;;
68744;SDS011;66104;45.456;11.064;2023-05-14T08:00:59;5.00;;;2.70;;
68744;SDS011;66104;45.456;11.064;2023-05-14T08:03:39;4.30;;;2.80;;
68744;SDS011;66104;45.456;11.064;2023-05-14T08:06:17;5.20;;;2.80;;
68744;SDS011;66104;45.456;11.064;2023-05-14T08:08:53;5.30;;;2.70;;
68744;SDS011;66104;45.456;11.064;2023-05-14T08:11:33;6.10;;;3.20;;
68744;SDS011;66104;45.456;11.064;2023-05-14T08:14:11;4.20;;;3.10;;
68744;SDS011;66104;45.456;11.064;2023-05-14T08:16:50;5.70;;;3.40;;
68744;SDS011;66104;45.456;11.064;2023-05-14T08:19:30;4.50;;;3.20;;
68744;SDS011;66104;45.456;11.064;2023-05-14T08:22:10;5.40;;;3.00;;
68744;SDS011;66104;45.456;11.064;2023-05-14T08:24:49;6.20;;;3.20;;
68744;SDS011;66104;45.456;11.064;2023-05-14T08:27:28;5.80;;;3.40;;
68744;SDS011;66104;45.456;11.064;2023-05-14T08:30:10;7.00;;;3.10;;
68744;SDS011;66104;45.456;11.064;2023-05-14T08:32:53;4.70;;;2.80;;
68744;SDS011;66104;45.456;11.064;2023-05-14T08:35:32;5.00;;;3.20;;
68744;SDS011;66104;45.456;11.064;2023-05-14T08:38:10;8.00;;;3.20;;
68744;SDS011;66104;45.456;11.064;2023-05-14T08:40:55;6.30;;;2.60;;
68744;SDS011;66104;45.456;11.064;2023-05-14T08:43:43;5.50;;;2.60;;
68744;SDS011;66104;45.456;11.064;2023-05-14T08:46:33;4.60;;;2.60;;
68744;SDS011;66104;45.456;11.064;2023-05-14T08:49:18;4.00;;;2.30;;
68744;SDS011;66104;45.456;11.064;2023-05-14T08:52:09;9.40;;;4.40;;
68744;SDS011;66104;45.456;11.064;2023-05-14T08:54:48;8.90;;;6.00;;
68744;SDS011;66104;45.456;11.064;2023-05-14T08:57:27;10.40;;;7.80;;
68744;SDS011;66104;45.456;11.064;2023-05-14T09:00:10;13.50;;;8.60;;
68744;SDS011;66104;45.456;11.064;2023-05-14T09:02:51;9.90;;;6.60;;
68744;SDS011;66104;45.456;11.064;2023-05-14T09:05:30;7.50;;;5.40;;
68744;SDS011;66104;45.456;11.064;2023-05-14T09:08:08;6.40;;;4.60;;
68744;SDS011;66104;45.456;11.064;2023-05-14T09:10:46;5.90;;;3.90;;
68744;SDS011;66104;45.456;11.064;2023-05-14T09:13:23;5.20;;;3.80;;
68744;SDS011;66104;45.456;11.064;2023-05-14T09:16:01;8.90;;;3.00;;
68744;SDS011;66104;45.456;11.064;2023-05-14T09:18:39;4.30;;;2.60;;
68744;SDS011;66104;45.456;11.064;2023-05-14T09:21:19;7.00;;;2.70;;
68744;SDS011;66104;45.456;11.064;2023-05-14T09:23:57;4.10;;;2.60;;
68744;SDS011;66104;45.456;11.064;2023-05-14T09:26:35;4.20;;;2.40;;
68744;SDS011;66104;45.456;11.064;2023-05-14T09:29:12;4.30;;;2.30;;
68744;SDS011;66104;45.456;11.064;2023-05-14T09:31:51;4.20;;;2.60;;
68744;SDS011;66104;45.456;11.064;2023-05-14T09:34:30;3.60;;;2.30;;
68744;SDS011;66104;45.456;11.064;2023-05-14T09:37:09;4.10;;;2.30;;
68744;SDS011;66104;45.456;11.064;2023-05-14T09:39:46;5.80;;;2.40;;
68744;SDS011;66104;45.456;11.064;2023-05-14T09:42:22;3.60;;;2.60;;
68744;SDS011;66104;45.456;11.064;2023-05-14T09:44:59;3.80;;;2.10;;
68744;SDS011;66104;45.456;11.064;2023-05-14T09:47:36;4.30;;;2.50;;
68744;SDS011;66104;45.456;11.064;2023-05-14T09:50:13;4.60;;;2.30;;
68744;SDS011;66104;45.456;11.064;2023-05-14T09:52:51;3.40;;;2.00;;
68744;SDS011;66104;45.456;11.064;2023-05-14T09:55:32;3.70;;;2.30;;
68744;SDS011;66104;45.456;11.064;2023-05-14T09:58:08;2.60;;;2.00;;
68744;SDS011;66104;45.456;11.064;2023-05-14T10:00:47;4.20;;;2.40;;
68744;SDS011;66104;45.456;11.064;2023-05-14T10:03:27;3.90;;;2.20;;
68744;SDS011;66104;45.456;11.064;2023-05-14T10:06:07;4.50;;;2.40;;
68744;SDS011;66104;45.456;11.064;2023-05-14T10:08:47;3.60;;;2.10;;
68744;SDS011;66104;45.456;11.064;2023-05-14T10:11:27;5.10;;;2.70;;
68744;SDS011;66104;45.456;11.064;2023-05-14T10:14:10;3.40;;;2.20;;
68744;SDS011;66104;45.456;11.064;2023-05-14T10:16:52;4.40;;;2.40;;
68744;SDS011;66104;45.456;11.064;2023-05-14T10:19:33;5.50;;;2.60;;
68744;SDS011;66104;45.456;11.064;2023-05-14T10:22:14;6.10;;;3.00;;
68744;SDS011;66104;45.456;11.064;2023-05-14T10:24:57;4.20;;;2.60;;
68744;SDS011;66104;45.456;11.064;2023-05-14T10:27:35;4.00;;;2.60;;
68744;SDS011;66104;45.456;11.064;2023-05-14T10:30:14;3.10;;;2.20;;
68744;SDS011;66104;45.456;11.064;2023-05-14T10:33:08;5.40;;;2.60;;
68744;SDS011;66104;45.456;11.064;2023-05-14T10:36:01;4.30;;;2.50;;
68744;SDS011;66104;45.456;11.064;2023-05-14T10:38:41;3.60;;;2.30;;
68744;SDS011;66104;45.456;11.064;2023-05-14T10:41:17;4.60;;;2.90;;
68744;SDS011;66104;45.456;11.064;2023-05-14T10:43:53;4.20;;;2.50;;
68744;SDS011;66104;45.456;11.064;2023-05-14T10:46:40;2.90;;;1.90;;
68744;SDS011;66104;45.456;11.064;2023-05-14T10:49:17;4.30;;;2.00;;
68744;SDS011;66104;45.456;11.064;2023-05-14T10:52:14;3.70;;;1.90;;
68744;SDS011;66104;45.456;11.064;2023-05-14T10:54:54;2.90;;;1.90;;
68744;SDS011;66104;45.456;11.064;2023-05-14T10:57:34;3.20;;;1.70;;
68744;SDS011;66104;45.456;11.064;2023-05-14T11:00:14;2.90;;;1.90;;
68744;SDS011;66104;45.456;11.064;2023-05-14T11:02:57;5.40;;;1.90;;
68744;SDS011;66104;45.456;11.064;2023-05-14T11:05:38;3.10;;;1.80;;
68744;SDS011;66104;45.456;11.064;2023-05-14T11:08:17;3.60;;;1.90;;
68744;SDS011;66104;45.456;11.064;2023-05-14T11:10:58;3.50;;;2.00;;
68744;SDS011;66104;45.456;11.064;2023-05-14T11:13:36;3.80;;;2.10;;
68744;SDS011;66104;45.456;11.064;2023-05-14T11:16:14;5.30;;;2.60;;
68744;SDS011;66104;45.456;11.064;2023-05-14T11:19:02;3.50;;;2.30;;
68744;SDS011;66104;45.456;11.064;2023-05-14T11:21:41;4.50;;;2.70;;
68744;SDS011;66104;45.456;11.064;2023-05-14T11:24:20;3.70;;;2.50;;
68744;SDS011;66104;45.456;11.064;2023-05-14T11:26:58;3.20;;;2.40;;
68744;SDS011;66104;45.456;11.064;2023-05-14T11:29:36;4.60;;;2.40;;
68744;SDS011;66104;45.456;11.064;2023-05-14T11:32:18;5.20;;;3.00;;
68744;SDS011;66104;45.456;11.064;2023-05-14T11:34:56;4.20;;;2.80;;
68744;SDS011;66104;45.456;11.064;2023-05-14T11:37:32;4.50;;;2.10;;
68744;SDS011;66104;45.456;11.064;2023-05-14T11:40:17;3.90;;;2.10;;
68744;SDS011;66104;45.456;11.064;2023-05-14T11:42:55;3.70;;;2.40;;
68744;SDS011;66104;45.456;11.064;2023-05-14T11:45:31;5.10;;;2.50;;
68744;SDS011;66104;45.456;11.064;2023-05-14T11:48:15;3.90;;;2.40;;
68744;SDS011;66104;45.456;11.064;2023-05-14T11:50:52;4.90;;;2.50;;
68744;SDS011;66104;45.456;11.064;2023-05-14T11:53:30;4.10;;;2.50;;
68744;SDS011;66104;45.456;11.064;2023-05-14T11:56:08;4.30;;;2.20;;
68744;SDS011;66104;45.456;11.064;2023-05-14T11:58:54;4.50;;;2.20;;
68744;SDS011;66104;45.456;11.064;2023-05-14T12:01:31;3.50;;;1.90;;
68744;SDS011;66104;45.456;11.064;2023-05-14T12:04:13;3.90;;;2.20;;
68744;SDS011;66104;45.456;11.064;2023-05-14T12:06:53;3.40;;;1.70;;
68744;SDS011;66104;45.456;11.064;2023-05-14T12:09:37;3.30;;;1.70;;
68744;SDS011;66104;45.456;11.064;2023-05-14T12:12:20;4.20;;;1.90;;
68744;SDS011;66104;45.456;11.064;2023-05-14T12:15:01;3.30;;;1.90;;
68744;SDS011;66104;45.456;11.064;2023-05-14T12:17:49;3.30;;;1.90;;
68744;SDS011;66104;45.456;11.064;2023-05-14T12:20:26;4.70;;;2.40;;
68744;SDS011;66104;45.456;11.064;2023-05-14T12:23:06;3.20;;;1.80;;
68744;SDS011;66104;45.456;11.064;2023-05-14T12:25:52;3.90;;;2.50;;
68744;SDS011;66104;45.456;11.064;2023-05-14T12:28:37;4.30;;;2.40;;
68744;SDS011;66104;45.456;11.064;2023-05-14T12:31:16;4.10;;;2.30;;
68744;SDS011;66104;45.456;11.064;2023-05-14T12:34:00;3.30;;;1.90;;
68744;SDS011;66104;45.456;11.064;2023-05-14T12:36:38;4.30;;;2.20;;
68744;SDS011;66104;45.456;11.064;2023-05-14T12:39:16;4.40;;;1.90;;
68744;SDS011;66104;45.456;11.064;2023-05-14T12:41:53;4.90;;;2.10;;
68744;SDS011;66104;45.456;11.064;2023-05-14T12:44:30;3.80;;;2.00;;
68744;SDS011;66104;45.456;11.064;2023-05-14T12:47:07;3.70;;;2.10;;
68744;SDS011;66104;45.456;11.064;2023-05-14T12:49:45;3.90;;;2.20;;
68744;SDS011;66104;45.456;11.064;2023-05-14T12:52:22;5.10;;;2.80;;
68744;SDS011;66104;45.456;11.064;2023-05-14T12:55:10;4.80;;;2.30;;
68744;SDS011;66104;45.456;11.064;2023-05-14T12:57:47;4.30;;;2.20;;
68744;SDS011;66104;45.456;11.064;2023-05-14T13:00:25;4.00;;;2.50;;
68744;SDS011;66104;45.456;11.064;2023-05-14T13:03:03;3.20;;;2.30;;
68744;SDS011;66104;45.456;11.064;2023-05-14T13:05:40;3.50;;;2.50;;
68744;SDS011;66104;45.456;11.064;2023-05-14T13:08:19;5.10;;;2.90;;
68744;SDS011;66104;45.456;11.064;2023-05-14T13:10:57;4.60;;;3.10;;
68744;SDS011;66104;45.456;11.064;2023-05-14T13:13:34;4.00;;;2.70;;
68744;SDS011;66104;45.456;11.064;2023-05-14T13:16:12;3.70;;;2.40;;
68744;SDS011;66104;45.456;11.064;2023-05-14T13:18:48;3.60;;;2.30;;
68744;SDS011;66104;45.456;11.064;2023-05-14T13:21:25;3.50;;;2.00;;
68744;SDS011;66104;45.456;11.064;2023-05-14T13:24:02;4.60;;;1.90;;
68744;SDS011;66104;45.456;11.064;2023-05-14T13:26:40;3.00;;;2.00;;
68744;SDS011;66104;45.456;11.064;2023-05-14T13:29:17;3.30;;;2.00;;
68744;SDS011;66104;45.456;11.064;2023-05-14T13:31:55;3.40;;;1.70;;
68744;SDS011;66104;45.456;11.064;2023-05-14T13:34:32;3.10;;;1.40;;
68744;SDS011;66104;45.456;11.064;2023-05-14T13:37:10;3.20;;;1.70;;
68744;SDS011;66104;45.456;11.064;2023-05-14T13:39:46;3.50;;;2.00;;
68744;SDS011;66104;45.456;11.064;2023-05-14T13:42:23;3.50;;;2.00;;
68744;SDS011;66104;45.456;11.064;2023-05-14T13:45:02;2.30;;;1.80;;
68744;SDS011;66104;45.456;11.064;2023-05-14T13:47:40;5.60;;;2.00;;
68744;SDS011;66104;45.456;11.064;2023-05-14T13:50:20;3.40;;;2.00;;
68744;SDS011;66104;45.456;11.064;2023-05-14T13:52:57;3.80;;;1.80;;
68744;SDS011;66104;45.456;11.064;2023-05-14T13:55:33;5.30;;;2.20;;
68744;SDS011;66104;45.456;11.064;2023-05-14T13:58:09;2.80;;;1.90;;
68744;SDS011;66104;45.456;11.064;2023-05-14T14:00:47;3.00;;;2.10;;
68744;SDS011;66104;45.456;11.064;2023-05-14T14:03:23;3.40;;;1.90;;
68744;SDS011;66104;45.456;11.064;2023-05-14T14:06:00;3.70;;;2.20;;
68744;SDS011;66104;45.456;11.064;2023-05-14T14:08:36;3.50;;;1.60;;
68744;SDS011;66104;45.456;11.064;2023-05-14T14:11:12;3.60;;;1.70;;
68744;SDS011;66104;45.456;11.064;2023-05-14T14:13:49;2.40;;;1.50;;
68744;SDS011;66104;45.456;11.064;2023-05-14T14:16:27;3.00;;;1.30;;
68744;SDS011;66104;45.456;11.064;2023-05-14T14:19:05;4.10;;;1.50;;
68744;SDS011;66104;45.456;11.064;2023-05-14T14:21:42;2.50;;;1.30;;
68744;SDS011;66104;45.456;11.064;2023-05-14T14:24:22;3.40;;;1.60;;
68744;SDS011;66104;45.456;11.064;2023-05-14T14:27:01;2.50;;;1.20;;
68744;SDS011;66104;45.456;11.064;2023-05-14T14:29:41;2.50;;;1.50;;
68744;SDS011;66104;45.456;11.064;2023-05-14T14:32:20;2.50;;;1.30;;
68744;SDS011;66104;45.456;11.064;2023-05-14T14:34:59;3.10;;;1.50;;
68744;SDS011;66104;45.456;11.064;2023-05-14T14:37:39;3.50;;;1.40;;
68744;SDS011;66104;45.456;11.064;2023-05-14T14:40:20;2.60;;;1.40;;
68744;SDS011;66104;45.456;11.064;2023-05-14T14:42:58;2.60;;;1.60;;
68744;SDS011;66104;45.456;11.064;2023-05-14T14:45:35;2.10;;;1.40;;
68744;SDS011;66104;45.456;11.064;2023-05-14T14:48:27;4.50;;;1.80;;
68744;SDS011;66104;45.456;11.064;2023-05-14T14:51:05;3.20;;;1.60;;
68744;SDS011;66104;45.456;11.064;2023-05-14T14:53:41;4.20;;;1.60;;
68744;SDS011;66104;45.456;11.064;2023-05-14T14:56:19;3.00;;;1.60;;
68744;SDS011;66104;45.456;11.064;2023-05-14T14:58:56;3.50;;;1.70;;
68744;SDS011;66104;45.456;11.064;2023-05-14T15:01:33;3.30;;;1.80;;
68744;SDS011;66104;45.456;11.064;2023-05-14T15:04:11;4.80;;;1.80;;
68744;SDS011;66104;45.456;11.064;2023-05-14T15:06:47;3.70;;;1.70;;
68744;SDS011;66104;45.456;11.064;2023-05-14T15:09:23;3.30;;;2.10;;
68744;SDS011;66104;45.456;11.064;2023-05-14T15:12:01;4.00;;;1.90;;
68744;SDS011;66104;45.456;11.064;2023-05-14T15:14:38;3.50;;;1.90;;
68744;SDS011;66104;45.456;11.064;2023-05-14T15:17:13;4.00;;;2.50;;
68744;SDS011;66104;45.456;11.064;2023-05-14T15:19:49;4.10;;;2.00;;
68744;SDS011;66104;45.456;11.064;2023-05-14T15:22:25;4.00;;;1.90;;
68744;SDS011;66104;45.456;11.064;2023-05-14T15:25:02;4.00;;;2.00;;
68744;SDS011;66104;45.456;11.064;2023-05-14T15:27:41;4.60;;;1.90;;
68744;SDS011;66104;45.456;11.064;2023-05-14T15:30:18;5.40;;;2.50;;
68744;SDS011;66104;45.456;11.064;2023-05-14T15:32:54;4.30;;;1.80;;
68744;SDS011;66104;45.456;11.064;2023-05-14T15:35:30;3.40;;;2.10;;
68744;SDS011;66104;45.456;11.064;2023-05-14T15:38:07;3.40;;;1.90;;
68744;SDS011;66104;45.456;11.064;2023-05-14T15:40:44;5.80;;;2.30;;
68744;SDS011;66104;45.456;11.064;2023-05-14T15:43:21;4.10;;;2.50;;
68744;SDS011;66104;45.456;11.064;2023-05-14T15:45:57;4.70;;;2.30;;